Time;durP1;ratioP1;P1;durP2;ratioP2;P2;SDS_P1;SDS_P2;PMS_P1;PMS_P2;Temp;Humidity;BMP_temperature;BMP_pressure;BME280_temperature;BME280_humidity;BME280_pressure;Samples;Min_cycle;Max_cycle;Signal;HPM_P1;HPM_P2
2022/05/08 00:02:19;;;;;;;14.88;2.83;;;9.70;99.90;;;;;;5056302;28;20049;-77
2022/05/08 00:04:45;;;;;;;17.10;3.17;;;9.70;99.90;;;;;;5056596;28;20037;-77
2022/05/08 00:07:12;;;;;;;17.95;2.90;;;9.70;99.90;;;;;;5056344;28;20106;-77
2022/05/08 00:09:37;;;;;;;20.58;4.47;;;9.70;99.90;;;;;;5056530;28;20053;-77
2022/05/08 00:12:04;;;;;;;18.17;3.33;;;9.70;99.90;;;;;;5055133;28;20106;-77
2022/05/08 00:14:29;;;;;;;15.80;4.00;;;9.70;99.90;;;;;;5056316;28;20446;-77
2022/05/08 00:16:55;;;;;;;15.27;3.15;;;9.70;99.90;;;;;;5056261;28;20037;-77
2022/05/08 00:19:20;;;;;;;16.00;3.20;;;9.70;99.90;;;;;;5055225;28;20407;-77
2022/05/08 00:21:46;;;;;;;12.55;2.85;;;9.60;99.90;;;;;;5054941;28;20041;-77
2022/05/08 00:24:12;;;;;;;15.82;2.97;;;9.60;99.90;;;;;;5056273;28;20041;-77
2022/05/08 00:26:38;;;;;;;8.23;2.33;;;9.70;99.90;;;;;;5054927;28;20421;-77
2022/05/08 00:29:03;;;;;;;22.38;3.20;;;9.60;99.90;;;;;;5056041;28;20132;-77
2022/05/08 00:31:29;;;;;;;17.23;3.53;;;9.60;99.90;;;;;;5056061;28;20120;-76
2022/05/08 00:33:55;;;;;;;11.02;2.47;;;9.60;99.90;;;;;;5056092;28;20416;-77
2022/05/08 00:36:21;;;;;;;13.27;2.78;;;9.60;99.90;;;;;;5055555;28;20119;-77
2022/05/08 00:38:47;;;;;;;13.98;2.67;;;9.60;99.90;;;;;;5055973;28;20072;-77
2022/05/08 00:41:12;;;;;;;11.43;3.55;;;9.50;99.90;;;;;;5055850;28;20162;-77
2022/05/08 00:43:39;;;;;;;10.85;2.50;;;9.50;99.90;;;;;;5054609;28;20049;-77
2022/05/08 00:46:12;;;;;;;15.07;2.58;;;9.50;99.90;;;;;;5055715;28;20484;-77
2022/05/08 00:48:39;;;;;;;16.88;3.28;;;9.50;99.90;;;;;;5054458;28;20041;-77
2022/05/08 00:51:06;;;;;;;17.77;3.35;;;9.50;99.90;;;;;;5055742;28;20041;-77
2022/05/08 00:53:45;;;;;;;10.30;2.33;;;9.50;99.90;;;;;;5055802;28;20044;-77
2022/05/08 00:56:13;;;;;;;9.73;2.42;;;9.50;99.90;;;;;;5055616;28;20045;-77
2022/05/08 00:58:40;;;;;;;14.55;2.55;;;9.50;99.90;;;;;;5055700;28;20052;-77
2022/05/08 01:01:07;;;;;;;14.45;2.78;;;9.50;99.90;;;;;;5055549;28;20045;-77
2022/05/08 01:03:33;;;;;;;14.55;2.50;;;9.50;99.90;;;;;;5055175;28;20519;-76
2022/05/08 01:06:03;;;;;;;14.25;3.42;;;9.50;99.90;;;;;;5055482;28;20040;-77
2022/05/08 01:08:30;;;;;;;16.85;2.90;;;9.50;99.90;;;;;;5054033;28;20115;-76
2022/05/08 01:10:55;;;;;;;16.45;2.83;;;9.50;99.90;;;;;;5055267;28;20041;-76
2022/05/08 01:13:21;;;;;;;13.40;2.95;;;9.50;99.90;;;;;;5055303;28;20041;-76
2022/05/08 01:15:48;;;;;;;9.25;2.15;;;9.50;99.90;;;;;;5055283;28;20069;-77
2022/05/08 01:18:15;;;;;;;10.48;2.65;;;9.40;99.90;;;;;;5055208;28;20041;-76
2022/05/08 01:20:42;;;;;;;9.98;2.40;;;9.40;99.90;;;;;;5055156;28;20128;-76
2022/05/08 01:23:08;;;;;;;14.02;2.50;;;9.40;99.90;;;;;;5055089;28;20045;-76
2022/05/08 01:25:35;;;;;;;13.05;2.30;;;9.40;99.90;;;;;;5055014;28;20041;-76
2022/05/08 01:28:04;;;;;;;13.13;2.10;;;9.40;99.90;;;;;;5054959;28;20106;-77
2022/05/08 01:30:31;;;;;;;7.68;1.98;;;9.40;99.90;;;;;;5054937;28;20039;-77
2022/05/08 01:32:58;;;;;;;13.63;2.65;;;9.40;99.90;;;;;;5054827;28;20088;-77
2022/05/08 01:35:24;;;;;;;11.52;1.75;;;9.30;99.90;;;;;;5054857;28;20045;-75
2022/05/08 01:37:50;;;;;;;12.32;2.10;;;9.30;99.90;;;;;;5054899;28;20056;-75
2022/05/08 01:40:17;;;;;;;10.77;2.13;;;9.30;99.90;;;;;;5054482;28;20049;-75
2022/05/08 01:42:44;;;;;;;12.80;2.40;;;9.30;99.90;;;;;;5054712;28;20082;-75
2022/05/08 01:45:11;;;;;;;14.68;2.95;;;9.30;99.90;;;;;;5054512;28;20388;-78
2022/05/08 01:50:22;;;;;;;9.25;2.00;;;9.30;99.90;;;;;;5054344;28;20067;-75
2022/05/08 01:52:48;;;;;;;9.07;2.03;;;9.30;99.90;;;;;;5054244;28;20388;-76
2022/05/08 01:55:13;;;;;;;10.60;2.20;;;9.20;99.90;;;;;;5053352;28;20053;-76
2022/05/08 01:57:39;;;;;;;8.40;2.53;;;9.20;99.90;;;;;;5053101;28;20048;-76
2022/05/08 02:00:06;;;;;;;8.70;2.70;;;9.20;99.90;;;;;;5054275;28;20128;-77
2022/05/08 02:02:32;;;;;;;7.43;1.60;;;9.20;99.90;;;;;;5054096;28;20057;-77
2022/05/08 02:04:59;;;;;;;12.15;2.58;;;9.20;99.90;;;;;;5054269;28;20053;-77
2022/05/08 02:07:25;;;;;;;12.73;2.70;;;9.20;99.90;;;;;;5053920;28;20041;-77
2022/05/08 02:09:51;;;;;;;11.35;1.95;;;9.20;99.90;;;;;;5054250;28;20052;-77
2022/05/08 02:12:16;;;;;;;10.77;1.70;;;9.10;99.90;;;;;;5054021;28;20048;-76
2022/05/08 02:14:43;;;;;;;9.45;2.28;;;9.10;99.90;;;;;;5052830;28;20076;-76
2022/05/08 02:17:09;;;;;;;8.60;1.77;;;9.10;99.90;;;;;;5086863;28;20102;-76
2022/05/08 02:19:35;;;;;;;7.70;2.05;;;9.10;99.90;;;;;;5054128;28;20040;-76
2022/05/08 02:22:00;;;;;;;8.35;1.70;;;9.10;99.90;;;;;;5053863;28;20116;-76
2022/05/08 02:24:26;;;;;;;9.77;1.90;;;9.10;99.90;;;;;;5052592;28;20037;-76
2022/05/08 02:26:52;;;;;;;6.97;1.90;;;9.10;99.90;;;;;;5052807;28;20048;-76
2022/05/08 02:29:18;;;;;;;6.63;1.42;;;9.10;99.90;;;;;;5053885;28;20472;-76
2022/05/08 02:31:44;;;;;;;8.18;1.73;;;9.00;99.90;;;;;;5053901;28;20044;-77
2022/05/08 02:34:09;;;;;;;15.40;3.00;;;9.00;99.90;;;;;;5053774;28;20387;-77
2022/05/08 02:36:35;;;;;;;9.05;1.65;;;9.00;99.90;;;;;;5053776;28;20563;-77
2022/05/08 02:39:01;;;;;;;10.13;1.77;;;9.00;99.90;;;;;;5053818;28;20093;-77
2022/05/08 02:41:26;;;;;;;6.95;1.70;;;9.00;99.90;;;;;;5053784;28;20392;-77
2022/05/08 02:43:52;;;;;;;15.65;1.83;;;9.00;99.90;;;;;;5053763;28;20365;-77
2022/05/08 02:46:18;;;;;;;8.30;1.52;;;9.00;99.90;;;;;;5053632;28;20178;-77
2022/05/08 02:48:43;;;;;;;6.63;1.50;;;9.00;99.90;;;;;;5053837;28;20468;-77
2022/05/08 02:51:09;;;;;;;7.85;1.85;;;9.00;99.90;;;;;;5053337;28;20145;-77
2022/05/08 02:53:34;;;;;;;11.15;1.85;;;8.90;99.90;;;;;;5053613;28;20507;-77
2022/05/08 02:58:44;;;;;;;6.72;2.53;;;8.90;99.90;;;;;;5053639;28;20053;-77
2022/05/08 03:01:10;;;;;;;15.05;1.80;;;8.90;99.90;;;;;;5059169;28;20170;-77
2022/05/08 03:03:36;;;;;;;9.38;2.08;;;8.90;99.90;;;;;;5059801;28;20065;-77
2022/05/08 03:06:02;;;;;;;10.63;1.95;;;8.90;99.90;;;;;;5059998;28;20052;-77
2022/05/08 03:08:28;;;;;;;7.03;1.65;;;8.90;99.90;;;;;;5059834;28;20476;-77
2022/05/08 03:13:40;;;;;;;9.88;2.08;;;8.90;99.90;;;;;;5060114;28;20059;-78
2022/05/08 03:16:07;;;;;;;7.75;1.52;;;8.80;99.90;;;;;;5060035;28;20052;-77
2022/05/08 03:18:38;;;;;;;6.15;1.63;;;8.80;99.90;;;;;;5058614;28;20435;-77
2022/05/08 03:21:05;;;;;;;12.18;2.15;;;8.80;99.90;;;;;;5060074;28;20041;-77
2022/05/08 03:23:31;;;;;;;4.90;1.42;;;8.80;99.90;;;;;;5059998;28;20048;-77
2022/05/08 03:25:57;;;;;;;12.07;2.13;;;8.80;99.90;;;;;;5059915;28;20041;-77
2022/05/08 03:28:22;;;;;;;12.63;2.42;;;8.70;99.90;;;;;;5059944;28;20095;-77
2022/05/08 03:30:48;;;;;;;8.73;1.65;;;8.70;99.90;;;;;;5059941;28;20068;-77
2022/05/08 03:33:14;;;;;;;7.68;1.65;;;8.70;99.90;;;;;;5059677;28;20048;-75
2022/05/08 03:35:41;;;;;;;8.70;1.42;;;8.70;99.90;;;;;;5058689;28;20048;-75
2022/05/08 03:38:08;;;;;;;6.90;1.42;;;8.70;99.90;;;;;;5059493;28;20036;-76
2022/05/08 03:40:34;;;;;;;8.82;2.20;;;8.80;99.90;;;;;;5059047;28;20053;-76
2022/05/08 03:43:00;;;;;;;7.80;1.92;;;8.80;99.90;;;;;;5058342;28;20087;-75
2022/05/08 03:45:27;;;;;;;10.38;2.55;;;8.80;99.90;;;;;;5059173;28;20056;-75
2022/05/08 03:47:53;;;;;;;5.78;2.25;;;8.80;99.90;;;;;;5059692;28;20123;-75
2022/05/08 03:50:19;;;;;;;9.98;2.63;;;8.80;99.90;;;;;;5059580;28;20131;-75
2022/05/08 03:52:46;;;;;;;7.72;2.25;;;8.80;99.90;;;;;;5059556;28;20116;-75
2022/05/08 03:55:12;;;;;;;11.32;2.15;;;8.70;99.90;;;;;;5059339;28;20483;-75
2022/05/08 03:57:38;;;;;;;10.95;1.80;;;8.80;99.90;;;;;;5059295;28;20088;-75
2022/05/08 04:00:05;;;;;;;4.50;1.58;;;8.70;99.90;;;;;;5059639;28;20068;-75
2022/05/08 04:02:30;;;;;;;7.50;1.77;;;8.70;99.90;;;;;;5059285;28;20083;-75
2022/05/08 04:04:56;;;;;;;10.32;2.17;;;8.70;99.90;;;;;;5059630;28;20052;-75
2022/05/08 04:07:22;;;;;;;7.15;1.52;;;8.70;99.90;;;;;;5059472;28;20044;-75
2022/05/08 04:09:47;;;;;;;8.27;1.83;;;8.70;99.90;;;;;;5059416;28;20447;-75
2022/05/08 04:12:14;;;;;;;10.02;2.13;;;8.70;99.90;;;;;;5056648;28;20041;-75
2022/05/08 04:14:39;;;;;;;7.88;1.70;;;8.70;99.90;;;;;;5054818;28;20131;-75
2022/05/08 04:17:05;;;;;;;4.82;2.65;;;8.70;99.90;;;;;;5054938;28;20340;-75
2022/05/08 04:19:31;;;;;;;4.93;1.60;;;8.80;99.90;;;;;;5056248;28;20043;-75
2022/05/08 04:24:41;;;;;;;11.13;2.17;;;8.70;99.90;;;;;;5055947;28;20053;-75
2022/05/08 04:27:06;;;;;;;10.82;1.50;;;8.70;99.90;;;;;;5055882;28;20407;-75
2022/05/08 04:29:32;;;;;;;9.57;1.85;;;8.70;99.90;;;;;;5054526;28;20533;-75
2022/05/08 04:31:58;;;;;;;7.93;2.10;;;8.80;99.90;;;;;;5054794;28;20231;-75
2022/05/08 04:34:23;;;;;;;6.35;1.35;;;8.80;99.90;;;;;;5055909;28;20408;-75
2022/05/08 04:36:49;;;;;;;10.27;1.70;;;8.80;99.90;;;;;;5055955;28;20041;-75
2022/05/08 04:39:14;;;;;;;6.25;1.35;;;8.80;99.90;;;;;;5055612;28;20127;-75
2022/05/08 04:41:40;;;;;;;7.18;1.35;;;8.80;99.90;;;;;;5055549;28;20079;-75
2022/05/08 04:44:06;;;;;;;9.77;1.70;;;8.80;99.90;;;;;;5054610;28;20063;-75
2022/05/08 04:46:31;;;;;;;8.10;2.08;;;8.90;99.90;;;;;;5054487;28;20049;-75
2022/05/08 04:48:57;;;;;;;4.35;1.58;;;8.90;99.90;;;;;;5055660;28;20514;-75
2022/05/08 04:51:23;;;;;;;5.43;1.38;;;9.00;99.90;;;;;;5055526;28;20191;-75
2022/05/08 04:53:49;;;;;;;7.60;2.00;;;9.00;99.90;;;;;;5054243;28;20080;-75
2022/05/08 04:56:14;;;;;;;6.05;1.70;;;9.10;99.90;;;;;;5056051;28;20127;-75
2022/05/08 04:58:40;;;;;;;5.80;1.73;;;9.20;99.90;;;;;;5054271;28;20049;-75
2022/05/08 05:01:06;;;;;;;6.47;1.80;;;9.20;99.90;;;;;;5055464;28;20091;-75
2022/05/08 05:03:32;;;;;;;9.05;1.95;;;9.20;99.90;;;;;;5054970;28;20049;-75
2022/05/08 05:05:58;;;;;;;4.90;1.52;;;9.20;99.90;;;;;;5055118;28;20448;-75
2022/05/08 05:08:23;;;;;;;12.98;2.92;;;9.20;99.90;;;;;;5053944;28;20128;-75
2022/05/08 05:10:49;;;;;;;5.75;2.15;;;9.20;99.90;;;;;;5055335;28;20120;-75
2022/05/08 05:13:15;;;;;;;9.45;1.60;;;9.20;99.90;;;;;;5055318;28;20468;-75
2022/05/08 05:15:41;;;;;;;5.10;1.38;;;9.30;99.90;;;;;;5055238;28;20047;-75
2022/05/08 05:18:07;;;;;;;6.97;1.60;;;9.30;99.90;;;;;;5055110;28;20040;-75
2022/05/08 05:20:32;;;;;;;6.60;2.00;;;9.50;99.90;;;;;;5053854;28;20507;-75
2022/05/08 05:23:02;;;;;;;9.02;1.50;;;9.60;99.90;;;;;;5052658;28;20055;-75
2022/05/08 05:25:28;;;;;;;10.13;1.52;;;9.60;99.90;;;;;;5054493;28;20484;-75
2022/05/08 05:27:54;;;;;;;6.50;1.70;;;9.60;99.90;;;;;;5054872;28;20042;-75
2022/05/08 05:30:20;;;;;;;6.65;1.10;;;9.70;99.90;;;;;;5054965;28;20123;-75
2022/05/08 05:32:46;;;;;;;9.13;2.00;;;9.70;99.90;;;;;;5054571;28;20052;-75
2022/05/08 05:35:12;;;;;;;7.40;2.00;;;9.80;99.90;;;;;;5054626;28;20041;-75
2022/05/08 05:37:39;;;;;;;7.43;1.52;;;9.70;99.90;;;;;;5054723;28;20095;-75
2022/05/08 05:40:06;;;;;;;5.88;1.42;;;9.80;99.90;;;;;;5053508;28;20124;-75
2022/05/08 05:42:32;;;;;;;6.15;1.70;;;9.80;99.90;;;;;;5054570;28;20037;-75
2022/05/08 05:45:00;;;;;;;7.00;1.65;;;9.80;99.90;;;;;;5054680;28;20041;-75
2022/05/08 05:50:11;;;;;;;8.90;2.17;;;9.90;99.90;;;;;;5054519;28;20049;-75
2022/05/08 05:52:37;;;;;;;8.35;1.48;;;10.00;99.90;;;;;;5054512;28;20044;-75
2022/05/08 05:55:06;;;;;;;11.40;2.53;;;10.00;99.90;;;;;;5053220;28;20053;-75
2022/05/08 05:57:33;;;;;;;5.10;2.17;;;10.10;99.90;;;;;;5054563;28;20102;-75
2022/05/08 05:59:59;;;;;;;6.95;1.48;;;10.30;99.90;;;;;;5054048;28;20427;-75
2022/05/08 06:02:24;;;;;;;7.43;1.75;;;10.30;99.90;;;;;;5054121;28;20488;-75
2022/05/08 06:04:50;;;;;;;6.20;1.50;;;10.50;99.90;;;;;;5054164;28;20436;-75
2022/05/08 06:07:16;;;;;;;6.68;2.05;;;10.60;99.90;;;;;;5054344;28;20044;-75
2022/05/08 06:09:41;;;;;;;9.38;1.60;;;10.70;99.90;;;;;;5052691;28;20473;-75
2022/05/08 06:12:07;;;;;;;8.45;1.60;;;10.70;99.90;;;;;;5052643;28;20076;-75
2022/05/08 06:14:33;;;;;;;6.78;1.30;;;10.90;99.90;;;;;;5052640;28;20059;-75
2022/05/08 06:16:58;;;;;;;9.68;1.77;;;11.20;99.90;;;;;;5054085;28;20124;-75
2022/05/08 06:19:24;;;;;;;6.68;2.00;;;11.20;99.90;;;;;;5053717;28;20518;-75
2022/05/08 06:21:50;;;;;;;7.18;1.75;;;11.20;99.90;;;;;;5053968;28;20065;-75
2022/05/08 06:24:15;;;;;;;9.55;1.45;;;11.20;99.90;;;;;;5053901;28;20041;-75
2022/05/08 06:26:41;;;;;;;10.10;2.10;;;11.20;99.90;;;;;;5053819;28;20082;-75
2022/05/08 06:29:06;;;;;;;8.70;1.70;;;11.20;99.90;;;;;;5053560;28;20052;-75
2022/05/08 06:31:32;;;;;;;7.45;1.88;;;11.40;99.90;;;;;;5053586;28;20055;-75
2022/05/08 06:33:58;;;;;;;12.32;1.73;;;11.40;99.90;;;;;;5053596;28;20033;-75
2022/05/08 06:36:25;;;;;;;10.32;1.77;;;11.60;99.90;;;;;;5053609;28;20047;-76
2022/05/08 06:38:51;;;;;;;9.95;1.63;;;11.60;99.90;;;;;;5053726;28;20119;-76
2022/05/08 06:41:17;;;;;;;7.32;1.35;;;11.80;99.90;;;;;;5053507;28;20464;-76
2022/05/08 06:43:44;;;;;;;6.45;1.52;;;12.00;99.90;;;;;;5053537;28;20531;-76
2022/05/08 06:46:10;;;;;;;14.48;2.70;;;12.10;99.90;;;;;;5053537;28;20029;-76
2022/05/08 06:48:36;;;;;;;10.05;1.90;;;12.20;99.90;;;;;;5053396;28;20503;-76
2022/05/08 06:51:03;;;;;;;7.45;1.58;;;12.50;99.90;;;;;;5053593;28;20136;-75
2022/05/08 06:53:29;;;;;;;8.90;1.42;;;12.60;99.90;;;;;;5053569;28;20045;-76
2022/05/08 06:55:54;;;;;;;8.23;1.40;;;12.60;99.90;;;;;;5052052;28;20051;-76
2022/05/08 06:58:20;;;;;;;5.72;1.42;;;12.40;99.90;;;;;;5053544;28;20048;-78
2022/05/08 07:03:31;;;;;;;7.65;1.48;;;12.30;99.90;;;;;;5053128;28;20057;-77
2022/05/08 07:05:57;;;;;;;9.73;1.67;;;12.40;99.90;;;;;;5053355;28;20055;-78
2022/05/08 07:08:23;;;;;;;10.93;2.05;;;12.40;99.90;;;;;;5053057;28;20080;-78
2022/05/08 07:10:49;;;;;;;8.45;1.80;;;12.40;99.90;;;;;;5053325;28;20041;-76
2022/05/08 07:13:15;;;;;;;5.72;2.08;;;12.30;99.90;;;;;;5053359;28;20036;-77
2022/05/08 07:15:41;;;;;;;12.32;1.90;;;12.30;99.90;;;;;;5053648;28;20495;-76
2022/05/08 07:18:08;;;;;;;10.20;1.75;;;12.40;99.90;;;;;;5053247;28;20049;-76
2022/05/08 07:20:34;;;;;;;9.25;1.65;;;12.50;99.90;;;;;;5055470;28;20096;-76
2022/05/08 07:23:00;;;;;;;7.82;2.63;;;12.40;99.90;;;;;;5060420;28;20546;-76
2022/05/08 07:25:26;;;;;;;9.02;1.63;;;12.40;99.90;;;;;;5053135;28;20037;-76
2022/05/08 07:27:52;;;;;;;10.65;2.22;;;12.30;99.90;;;;;;5051432;28;20060;-75
2022/05/08 07:30:17;;;;;;;10.73;2.58;;;12.30;99.90;;;;;;5052913;28;20045;-74
2022/05/08 07:32:44;;;;;;;8.00;1.65;;;12.20;99.90;;;;;;5053007;28;20044;-75
2022/05/08 07:37:55;;;;;;;9.85;1.95;;;12.30;99.90;;;;;;5052731;28;20048;-75
2022/05/08 07:40:21;;;;;;;10.48;1.77;;;12.50;99.90;;;;;;5052980;28;20388;-77
2022/05/08 07:42:46;;;;;;;8.45;2.95;;;12.80;99.90;;;;;;5052835;28;20045;-76
2022/05/08 07:45:12;;;;;;;7.57;1.42;;;12.90;99.90;;;;;;5052992;28;20045;-77
2022/05/08 07:47:39;;;;;;;8.25;1.90;;;12.90;99.90;;;;;;5055105;28;20509;-76
2022/05/08 07:50:06;;;;;;;8.30;1.60;;;13.20;99.90;;;;;;5056440;28;20134;-75
2022/05/08 07:52:36;;;;;;;7.00;1.77;;;13.30;99.90;;;;;;5056482;28;20045;-75
2022/05/08 07:55:02;;;;;;;10.40;2.05;;;13.20;99.90;;;;;;5056569;28;20041;-75
2022/05/08 07:57:28;;;;;;;9.07;2.08;;;13.30;99.90;;;;;;5056490;28;20052;-75
2022/05/08 07:59:54;;;;;;;10.00;1.77;;;13.40;99.90;;;;;;5056507;28;20135;-75
2022/05/08 08:02:20;;;;;;;8.43;2.30;;;13.50;99.90;;;;;;5055950;28;20136;-76
2022/05/08 08:04:45;;;;;;;12.73;1.70;;;13.80;99.90;;;;;;5056467;28;20102;-75
2022/05/08 08:07:11;;;;;;;9.15;2.63;;;13.60;99.90;;;;;;5056392;28;20037;-76
2022/05/08 08:09:36;;;;;;;7.25;1.38;;;13.70;99.90;;;;;;5055853;28;20091;-75
2022/05/08 08:12:02;;;;;;;8.70;1.70;;;13.50;99.90;;;;;;5054795;28;20056;-75
2022/05/08 08:14:29;;;;;;;9.05;2.13;;;13.50;99.90;;;;;;5055855;28;20041;-75
2022/05/08 08:16:55;;;;;;;11.18;2.00;;;13.80;99.90;;;;;;5056116;28;20098;-75
2022/05/08 08:19:21;;;;;;;7.97;1.90;;;13.80;99.90;;;;;;5055799;28;20489;-75
2022/05/08 08:21:46;;;;;;;6.95;1.92;;;14.00;99.90;;;;;;5055607;28;20068;-75
2022/05/08 08:24:12;;;;;;;10.80;1.80;;;14.30;99.90;;;;;;5060839;28;20555;-75
2022/05/08 08:26:40;;;;;;;8.63;2.40;;;14.50;99.90;;;;;;5061970;28;20052;-76
2022/05/08 08:29:06;;;;;;;10.00;1.52;;;14.50;99.90;;;;;;5055832;28;20119;-76
2022/05/08 08:31:32;;;;;;;9.40;1.88;;;14.60;99.90;;;;;;5055800;28;20116;-76
2022/05/08 08:33:58;;;;;;;10.35;2.00;;;14.60;99.90;;;;;;5054566;28;20476;-75
2022/05/08 08:36:24;;;;;;;7.80;1.23;;;14.70;99.90;;;;;;5055501;28;20041;-75
2022/05/08 08:38:50;;;;;;;9.85;2.40;;;14.60;99.90;;;;;;5055713;28;20100;-75
2022/05/08 08:41:21;;;;;;;13.90;1.55;;;14.40;99.90;;;;;;5055779;28;20041;-75
2022/05/08 08:49:21;;;;;;;9.88;2.25;;;14.30;99.90;;;;;;5082767;28;20037;-75
2022/05/08 08:51:48;;;;;;;7.25;1.48;;;14.40;99.90;;;;;;5075206;28;20460;-75
2022/05/08 08:54:15;;;;;;;12.60;2.45;;;14.60;99.90;;;;;;5068680;28;20488;-75
2022/05/08 08:56:40;;;;;;;11.18;2.63;;;14.60;99.90;;;;;;5061774;28;20116;-75
2022/05/08 08:59:06;;;;;;;9.13;1.80;;;14.60;99.90;;;;;;5055028;28;20120;-75
2022/05/08 09:01:40;;;;;;;11.20;1.90;;;14.60;99.90;;;;;;5054984;28;20140;-75
2022/05/08 09:04:06;;;;;;;11.43;1.70;;;14.50;99.90;;;;;;5058152;28;20060;-75
2022/05/08 09:06:39;;;;;;;10.23;1.73;;;14.70;99.90;;;;;;5062642;28;20055;-75
2022/05/08 09:09:22;;;;;;;5.30;1.52;;;14.50;99.90;;;;;;5055132;28;20048;-76
2022/05/08 09:11:48;;;;;;;14.10;1.92;;;14.80;99.90;;;;;;5081063;28;20044;-75
2022/05/08 09:14:34;;;;;;;12.07;2.50;;;14.60;99.90;;;;;;5095296;28;20047;-75
2022/05/08 09:17:02;;;;;;;9.13;1.83;;;14.50;99.90;;;;;;5095042;28;20047;-76
2022/05/08 09:19:37;;;;;;;13.15;2.00;;;14.70;99.90;;;;;;5094706;28;20157;-76
2022/05/08 09:22:07;;;;;;;13.80;1.88;;;14.80;99.90;;;;;;5082234;28;20043;-75
2022/05/08 09:24:35;;;;;;;11.35;1.60;;;14.80;99.90;;;;;;5080182;28;20500;-76
2022/05/08 09:27:12;;;;;;;11.07;1.95;;;14.90;99.90;;;;;;5082147;28;20044;-75
2022/05/08 09:29:37;;;;;;;12.50;2.15;;;15.10;99.90;;;;;;5094577;28;20981;-75
2022/05/08 09:32:04;;;;;;;13.18;2.15;;;15.20;99.90;;;;;;5093709;28;20153;-76
2022/05/08 09:34:29;;;;;;;8.30;2.15;;;15.10;99.90;;;;;;5075997;28;20040;-75
2022/05/08 09:37:05;;;;;;;14.70;2.17;;;15.30;99.90;;;;;;5059384;28;20399;-76
2022/05/08 09:39:31;;;;;;;15.63;2.10;;;15.20;99.90;;;;;;5053212;28;20053;-76
2022/05/08 09:41:57;;;;;;;10.75;2.38;;;15.20;99.90;;;;;;5053035;28;20103;-75
2022/05/08 09:44:23;;;;;;;11.38;2.40;;;14.90;99.90;;;;;;5053232;28;20037;-76
2022/05/08 09:46:49;;;;;;;10.23;2.10;;;15.20;99.90;;;;;;5054443;28;20077;-76
2022/05/08 09:49:21;;;;;;;11.23;2.42;;;15.50;99.90;;;;;;5052947;28;20138;-75
2022/05/08 09:51:48;;;;;;;16.33;3.08;;;15.70;99.90;;;;;;5054290;28;20045;-75
2022/05/08 09:54:16;;;;;;;9.77;1.90;;;15.80;99.90;;;;;;5057556;28;20071;-75
2022/05/08 09:56:45;;;;;;;8.30;1.88;;;15.90;99.90;;;;;;5079347;28;20133;-76
2022/05/08 09:59:11;;;;;;;14.38;2.30;;;15.60;99.90;;;;;;5083254;28;20058;-76
2022/05/08 10:01:38;;;;;;;9.13;1.95;;;15.70;99.90;;;;;;5082528;28;20041;-75
2022/05/08 10:04:03;;;;;;;12.18;2.30;;;15.40;99.90;;;;;;5072640;28;20135;-76
2022/05/08 10:06:32;;;;;;;9.38;2.00;;;15.60;99.90;;;;;;5062668;28;20080;-76
2022/05/08 10:14:30;;;;;;;9.93;2.05;;;16.10;99.90;;;;;;5052500;28;20381;-78
2022/05/08 10:17:05;;;;;;;10.60;1.90;;;16.10;99.90;;;;;;5053554;28;20181;-78
2022/05/08 10:19:30;;;;;;;11.15;1.90;;;16.00;99.90;;;;;;5059216;28;20098;-78
2022/05/08 10:22:00;;;;;;;14.85;2.03;;;16.30;99.90;;;;;;5081820;28;20036;-78
2022/05/08 10:24:30;;;;;;;8.45;2.22;;;16.50;99.90;;;;;;5075676;28;20055;-78
2022/05/08 10:27:11;;;;;;;13.23;2.20;;;16.50;99.90;;;;;;5059745;28;20392;-78
2022/05/08 10:30:03;;;;;;;7.88;2.08;;;16.50;99.90;;;;;;5066053;28;20056;-78
2022/05/08 10:32:31;;;;;;;12.48;2.33;;;16.80;99.90;;;;;;5078255;28;20049;-77
2022/05/08 10:35:18;;;;;;;11.73;2.58;;;16.60;99.90;;;;;;5073046;28;20044;-78
2022/05/08 10:37:51;;;;;;;8.63;2.00;;;16.50;99.90;;;;;;5081275;28;20396;-78
2022/05/08 10:40:22;;;;;;;9.73;2.10;;;16.50;99.90;;;;;;5080400;28;20395;-77
2022/05/08 10:42:54;;;;;;;10.40;2.40;;;16.60;99.90;;;;;;5081881;28;20117;-77
2022/05/08 10:45:37;;;;;;;13.85;2.58;;;16.60;99.90;;;;;;5081775;28;20491;-78
2022/05/08 10:48:13;;;;;;;14.03;2.60;;;16.70;99.90;;;;;;5079999;28;20056;-78
2022/05/08 10:50:55;;;;;;;12.30;2.53;;;16.60;99.90;;;;;;5080770;28;20358;-78
2022/05/08 10:53:33;;;;;;;10.57;1.95;;;16.50;99.90;;;;;;5079228;28;20055;-78
2022/05/08 10:56:10;;;;;;;13.10;2.22;;;16.90;99.90;;;;;;5084009;28;20032;-78
2022/05/08 10:58:49;;;;;;;15.10;3.13;;;17.10;99.90;;;;;;5079642;28;20048;-78
2022/05/08 11:01:15;;;;;;;11.98;2.08;;;16.90;99.90;;;;;;5080007;28;20123;-78
2022/05/08 11:03:40;;;;;;;13.50;2.30;;;16.80;99.90;;;;;;5082659;28;20186;-77
2022/05/08 11:06:06;;;;;;;7.90;2.00;;;16.90;99.90;;;;;;5083812;28;20082;-77
2022/05/08 11:08:34;;;;;;;11.05;2.03;;;16.70;99.90;;;;;;5081818;28;20037;-77
2022/05/08 11:11:09;;;;;;;12.18;2.70;;;16.80;99.90;;;;;;5082971;28;20047;-78
2022/05/08 11:13:41;;;;;;;13.52;2.65;;;16.90;99.90;;;;;;5071713;28;20087;-77
2022/05/08 11:16:07;;;;;;;9.80;2.17;;;16.90;99.90;;;;;;5071847;28;20044;-78
2022/05/08 11:18:32;;;;;;;10.13;1.92;;;17.00;99.90;;;;;;5071769;28;20051;-77
2022/05/08 11:21:03;;;;;;;9.63;2.17;;;17.00;99.90;;;;;;5073720;28;20056;-77
2022/05/08 11:23:40;;;;;;;8.43;2.10;;;16.90;99.90;;;;;;5076955;28;20090;-78
2022/05/08 11:26:08;;;;;;;10.45;2.05;;;17.20;99.90;;;;;;5077215;28;20040;-77
2022/05/08 11:28:47;;;;;;;9.65;2.03;;;17.00;99.90;;;;;;5075558;28;20048;-77
2022/05/08 11:31:14;;;;;;;14.88;2.42;;;16.80;99.90;;;;;;5076945;28;20044;-77
2022/05/08 11:36:35;;;;;;;10.38;2.58;;;17.10;99.90;;;;;;5077215;28;20056;-77
2022/05/08 11:39:04;;;;;;;11.05;2.20;;;17.20;99.90;;;;;;5077213;28;20032;-76
2022/05/08 11:41:32;;;;;;;14.23;2.63;;;17.20;99.90;;;;;;5076813;28;20080;-77
2022/05/08 11:44:02;;;;;;;9.05;1.73;;;17.10;99.90;;;;;;5075728;28;20466;-76
2022/05/08 11:46:37;;;;;;;11.35;2.50;;;16.70;99.90;;;;;;5076831;28;20080;-77
2022/05/08 11:49:20;;;;;;;10.23;2.40;;;17.00;99.90;;;;;;5075241;28;20048;-76
2022/05/08 11:52:17;;;;;;;8.02;2.45;;;17.10;99.90;;;;;;5075296;28;20127;-76
2022/05/08 11:55:02;;;;;;;10.25;2.25;;;16.90;99.90;;;;;;5075601;28;20102;-77
2022/05/08 11:57:28;;;;;;;10.45;2.35;;;17.10;99.90;;;;;;5074463;28;20079;-76
2022/05/08 12:00:11;;;;;;;10.60;2.38;;;17.10;99.90;;;;;;5067365;28;20075;-76
2022/05/08 12:02:41;;;;;;;9.32;2.78;;;17.30;99.90;;;;;;5054945;28;20056;-76
2022/05/08 12:05:19;;;;;;;13.98;2.65;;;17.10;99.90;;;;;;5055105;28;20053;-76
2022/05/08 12:07:48;;;;;;;9.50;2.30;;;17.40;99.90;;;;;;5055011;28;20063;-76
2022/05/08 12:10:16;;;;;;;12.98;3.17;;;17.30;99.90;;;;;;5056242;28;20072;-76
2022/05/08 12:12:42;;;;;;;7.88;3.05;;;17.50;99.90;;;;;;5055964;28;20048;-76
2022/05/08 12:15:09;;;;;;;9.43;2.83;;;17.20;99.90;;;;;;5055909;28;20045;-76
2022/05/08 12:17:43;;;;;;;12.65;2.47;;;17.30;99.90;;;;;;5056030;28;20049;-77
2022/05/08 12:20:26;;;;;;;11.85;2.35;;;17.50;99.90;;;;;;5054481;28;20045;-76
2022/05/08 12:22:58;;;;;;;12.77;2.35;;;17.50;99.90;;;;;;5088482;28;20051;-76
2022/05/08 12:25:24;;;;;;;10.70;2.15;;;17.30;99.90;;;;;;5054466;28;20041;-77
2022/05/08 12:27:50;;;;;;;13.95;2.85;;;17.30;99.90;;;;;;5055908;28;20037;-76
2022/05/08 12:30:16;;;;;;;9.55;1.90;;;17.50;99.90;;;;;;5055779;28;20606;-76
2022/05/08 12:32:42;;;;;;;8.30;2.00;;;17.60;99.90;;;;;;5054900;28;20047;-76
2022/05/08 12:35:09;;;;;;;10.38;2.40;;;17.70;99.90;;;;;;5055686;28;20045;-76
2022/05/08 12:37:35;;;;;;;9.93;2.30;;;17.70;99.90;;;;;;5054189;28;20056;-76
2022/05/08 12:40:01;;;;;;;13.05;3.33;;;17.50;99.90;;;;;;5054086;28;20507;-76
2022/05/08 12:42:26;;;;;;;15.30;2.47;;;17.40;99.90;;;;;;5055545;28;20037;-76
2022/05/08 12:44:52;;;;;;;13.77;2.33;;;17.40;99.90;;;;;;5054374;28;20048;-76
2022/05/08 12:47:19;;;;;;;11.13;2.30;;;17.00;99.90;;;;;;5054137;28;20132;-76
2022/05/08 12:49:45;;;;;;;13.68;2.65;;;17.10;99.90;;;;;;5055461;28;20052;-76
2022/05/08 12:52:11;;;;;;;11.20;2.20;;;17.10;99.90;;;;;;5055227;28;20037;-76
2022/05/08 12:54:37;;;;;;;9.95;2.13;;;17.10;99.90;;;;;;5054242;28;20459;-76
2022/05/08 12:57:06;;;;;;;11.88;2.33;;;17.30;99.90;;;;;;5055082;28;20622;-76
2022/05/08 12:59:42;;;;;;;10.00;2.65;;;17.20;99.90;;;;;;5053965;28;20052;-76
2022/05/08 13:02:11;;;;;;;11.60;2.00;;;17.00;99.90;;;;;;5054912;28;20059;-76
2022/05/08 13:04:37;;;;;;;13.70;3.22;;;17.20;99.90;;;;;;5054948;28;20057;-76
2022/05/08 13:07:03;;;;;;;7.95;1.90;;;17.40;99.90;;;;;;5055230;28;20068;-75
2022/05/08 13:09:28;;;;;;;11.52;1.85;;;17.30;99.90;;;;;;5054788;28;20072;-75
2022/05/08 13:11:54;;;;;;;11.55;2.67;;;17.50;99.90;;;;;;5054723;28;20051;-76
2022/05/08 13:14:20;;;;;;;8.95;2.17;;;17.60;99.90;;;;;;5055117;28;20095;-75
2022/05/08 13:16:45;;;;;;;11.38;2.20;;;17.60;99.90;;;;;;5053780;28;20519;-76
2022/05/08 13:19:11;;;;;;;12.95;2.10;;;17.40;99.90;;;;;;5054867;28;20492;-76
2022/05/08 13:21:39;;;;;;;10.98;1.90;;;17.50;99.90;;;;;;5054717;28;20377;-76